Time;durP1;ratioP1;P1;durP2;ratioP2;P2;SDS_P1;SDS_P2;PMS_P1;PMS_P2;Temp;Humidity;BMP_temperature;BMP_pressure;BME280_temperature;BME280_humidity;BME280_pressure;Samples;Min_cycle;Max_cycle;Signal;HPM_P1;HPM_P2
2021/12/27 00:01:56;;;;;;;15.55;5.80;;;;;;;;;;5018426;28;20106;-34
2021/12/27 00:04:22;;;;;;;17.25;6.13;;;;;;;;;;5018622;28;20034;-34
2021/12/27 00:06:48;;;;;;;17.88;5.95;;;;;;;;;;5019240;28;20477;-34
2021/12/27 00:09:14;;;;;;;16.63;5.85;;;;;;;;;;5012723;28;20049;-34
2021/12/27 00:11:40;;;;;;;17.58;6.43;;;;;;;;;;5019096;28;20645;-34
2021/12/27 00:14:06;;;;;;;16.40;6.78;;;;;;;;;;5022149;28;20368;-35
2021/12/27 00:16:32;;;;;;;21.52;6.55;;;;;;;;;;5020064;28;20442;-34
2021/12/27 00:18:58;;;;;;;18.00;6.20;;;;;;;;;;5026820;28;20065;-34
2021/12/27 00:21:24;;;;;;;14.90;6.25;;;;;;;;;;5018991;28;20025;-35
2021/12/27 00:23:50;;;;;;;15.95;6.68;;;;;;;;;;5017655;28;20030;-34
2021/12/27 00:26:16;;;;;;;19.02;6.75;;;;;;;;;;5020481;28;20045;-34
2021/12/27 00:28:42;;;;;;;18.65;6.40;;;;;;;;;;5023955;28;20065;-34
2021/12/27 00:31:08;;;;;;;14.35;5.40;;;;;;;;;;5019871;28;20025;-35
2021/12/27 00:33:34;;;;;;;16.88;6.43;;;;;;;;;;5022504;28;20060;-34
2021/12/27 00:36:00;;;;;;;17.23;6.43;;;;;;;;;;5022352;28;20114;-34
2021/12/27 00:38:26;;;;;;;21.67;6.35;;;;;;;;;;5019325;28;20029;-34
2021/12/27 00:40:52;;;;;;;18.52;6.28;;;;;;;;;;5024376;28;20022;-34
2021/12/27 00:43:19;;;;;;;11.32;5.80;;;;;;;;;;5023583;28;20069;-34
2021/12/27 00:45:46;;;;;;;18.30;6.32;;;;;;;;;;5023227;28;20026;-34
2021/12/27 00:48:12;;;;;;;21.05;6.60;;;;;;;;;;5022437;28;20018;-34
2021/12/27 00:50:38;;;;;;;15.40;6.50;;;;;;;;;;5022579;28;20018;-34
2021/12/27 00:53:04;;;;;;;16.40;6.13;;;;;;;;;;5022851;28;20433;-34
2021/12/27 00:55:30;;;;;;;15.98;6.85;;;;;;;;;;5024875;28;20465;-34
2021/12/27 00:57:56;;;;;;;21.85;6.00;;;;;;;;;;5024358;28;20071;-34
2021/12/27 01:00:25;;;;;;;15.40;6.35;;;;;;;;;;5020026;28;20037;-34
2021/12/27 01:02:53;;;;;;;18.30;6.28;;;;;;;;;;5023489;28;20041;-34
2021/12/27 01:05:19;;;;;;;20.85;6.70;;;;;;;;;;5021450;28;20037;-34
2021/12/27 01:07:45;;;;;;;16.67;6.75;;;;;;;;;;5025819;28;20041;-35
2021/12/27 01:17:41;;;;;;;16.60;7.20;;;;;;;;;;5021983;28;20072;-45
2021/12/27 01:20:09;;;;;;;19.50;7.53;;;;;;;;;;5023742;28;20029;-43
2021/12/27 01:22:35;;;;;;;17.02;6.97;;;;;;;;;;5019540;28;20649;-45
2021/12/27 01:25:01;;;;;;;19.10;6.75;;;;;;;;;;5021133;28;20032;-44
2021/12/27 01:27:27;;;;;;;20.60;8.20;;;;;;;;;;5021817;28;20403;-43
2021/12/27 01:29:53;;;;;;;19.40;7.10;;;;;;;;;;5039134;28;20032;-43
2021/12/27 01:32:20;;;;;;;22.20;7.85;;;;;;;;;;5031246;28;20097;-44
2021/12/27 01:34:46;;;;;;;18.08;7.00;;;;;;;;;;5031826;28;20021;-45
2021/12/27 01:37:12;;;;;;;17.90;6.47;;;;;;;;;;5031238;28;20030;-44
2021/12/27 01:39:38;;;;;;;23.30;7.13;;;;;;;;;;5032129;28;20028;-44
2021/12/27 01:42:04;;;;;;;15.80;7.03;;;;;;;;;;5031713;28;20037;-43
2021/12/27 01:44:31;;;;;;;23.23;7.43;;;;;;;;;;5031611;28;20790;-44
2021/12/27 01:46:57;;;;;;;15.00;7.18;;;;;;;;;;5031845;28;20468;-43
2021/12/27 01:49:23;;;;;;;20.30;7.05;;;;;;;;;;5031275;28;20372;-44
2021/12/27 01:51:49;;;;;;;23.25;7.28;;;;;;;;;;5030935;28;20032;-46
2021/12/27 01:54:15;;;;;;;20.45;7.50;;;;;;;;;;5031148;28;20017;-44
2021/12/27 01:56:41;;;;;;;28.98;7.38;;;;;;;;;;5032045;28;20432;-42
2021/12/27 01:59:07;;;;;;;16.25;6.85;;;;;;;;;;5031490;28;20053;-44
2021/12/27 02:01:33;;;;;;;27.10;7.57;;;;;;;;;;5031836;28;20063;-43
2021/12/27 02:03:59;;;;;;;22.73;7.60;;;;;;;;;;5031725;28;20294;-44
2021/12/27 02:06:25;;;;;;;21.23;8.13;;;;;;;;;;5031383;28;20021;-43
2021/12/27 02:08:51;;;;;;;24.50;8.75;;;;;;;;;;5031844;28;20029;-43
2021/12/27 02:11:19;;;;;;;19.65;7.40;;;;;;;;;;5030776;28;20057;-43
2021/12/27 02:13:46;;;;;;;19.40;8.00;;;;;;;;;;5031384;28;20116;-44
2021/12/27 02:16:13;;;;;;;20.95;7.25;;;;;;;;;;5031385;28;20022;-44
2021/12/27 02:18:40;;;;;;;21.05;8.50;;;;;;;;;;5032269;28;20475;-43
2021/12/27 02:21:06;;;;;;;21.67;7.80;;;;;;;;;;5031238;28;20582;-42
2021/12/27 02:23:32;;;;;;;22.30;8.05;;;;;;;;;;5026139;28;20164;-42
2021/12/27 02:25:58;;;;;;;26.45;8.05;;;;;;;;;;5036303;28;20033;-43
2021/12/27 02:28:24;;;;;;;20.55;8.27;;;;;;;;;;5032478;28;20033;-43
2021/12/27 02:30:52;;;;;;;26.42;8.65;;;;;;;;;;5030394;28;20108;-43
2021/12/27 02:33:18;;;;;;;26.38;8.35;;;;;;;;;;5029644;28;20021;-45
2021/12/27 02:35:45;;;;;;;27.55;8.65;;;;;;;;;;5030767;28;20253;-43
2021/12/27 02:38:14;;;;;;;24.45;9.02;;;;;;;;;;5030895;28;20080;-43
2021/12/27 02:40:40;;;;;;;22.98;7.90;;;;;;;;;;5029639;28;20614;-42
2021/12/27 02:43:08;;;;;;;20.90;7.97;;;;;;;;;;5025724;28;20143;-44
2021/12/27 02:45:36;;;;;;;25.27;8.27;;;;;;;;;;5031012;28;20033;-43
2021/12/27 02:48:03;;;;;;;22.05;8.27;;;;;;;;;;5030751;28;20472;-43
2021/12/27 02:50:29;;;;;;;28.02;9.15;;;;;;;;;;5030524;28;20539;-44
2021/12/27 02:52:56;;;;;;;29.83;9.95;;;;;;;;;;5029286;28;20632;-44
2021/12/27 02:55:23;;;;;;;24.20;8.73;;;;;;;;;;5030080;28;20037;-44
2021/12/27 02:57:50;;;;;;;32.83;10.00;;;;;;;;;;5030271;28;20048;-44
2021/12/27 03:00:18;;;;;;;23.27;8.85;;;;;;;;;;5030520;28;20096;-43
2021/12/27 03:02:45;;;;;;;26.17;9.27;;;;;;;;;;5030622;28;20061;-44
2021/12/27 03:05:13;;;;;;;29.77;9.35;;;;;;;;;;5030478;28;20057;-43
2021/12/27 03:07:40;;;;;;;33.58;9.15;;;;;;;;;;5030293;28;20034;-43
2021/12/27 03:10:07;;;;;;;29.52;10.27;;;;;;;;;;5030878;28;20029;-43
2021/12/27 03:12:33;;;;;;;29.25;10.75;;;;;;;;;;5030123;28;20108;-44
2021/12/27 03:14:59;;;;;;;31.75;9.05;;;;;;;;;;5029582;28;20448;-44
2021/12/27 03:17:25;;;;;;;27.92;9.95;;;;;;;;;;5029547;28;20147;-44
2021/12/27 03:19:51;;;;;;;35.83;10.98;;;;;;;;;;5030141;28;20633;-43
2021/12/27 03:22:17;;;;;;;31.75;9.48;;;;;;;;;;5030428;28;20022;-44
2021/12/27 03:24:43;;;;;;;20.77;9.43;;;;;;;;;;5030758;28;20530;-43
2021/12/27 03:27:09;;;;;;;32.15;11.27;;;;;;;;;;5029936;28;20033;-43
2021/12/27 03:29:35;;;;;;;26.45;10.25;;;;;;;;;;5029520;28;20472;-44
2021/12/27 03:32:02;;;;;;;29.75;10.10;;;;;;;;;;5029788;28;20032;-43
2021/12/27 03:34:31;;;;;;;31.65;10.13;;;;;;;;;;5029715;28;20013;-43
2021/12/27 03:36:57;;;;;;;22.80;9.73;;;;;;;;;;5030003;28;20052;-44
2021/12/27 03:39:24;;;;;;;26.98;10.98;;;;;;;;;;5030128;28;20096;-46
2021/12/27 03:41:49;;;;;;;33.40;11.82;;;;;;;;;;5029787;28;20084;-42
2021/12/27 03:44:16;;;;;;;23.95;10.82;;;;;;;;;;5025408;28;20504;-44
2021/12/27 03:46:41;;;;;;;28.73;10.93;;;;;;;;;;5033795;28;20108;-43
2021/12/27 03:49:07;;;;;;;34.85;9.95;;;;;;;;;;5033385;28;20119;-44
2021/12/27 03:51:33;;;;;;;29.15;10.40;;;;;;;;;;5033833;28;20056;-44
2021/12/27 03:53:59;;;;;;;27.83;10.43;;;;;;;;;;5033562;28;20030;-43
2021/12/27 03:56:27;;;;;;;36.50;12.05;;;;;;;;;;5034213;28;20433;-43
2021/12/27 03:58:57;;;;;;;27.52;11.52;;;;;;;;;;5033556;28;20026;-45
2021/12/27 04:01:24;;;;;;;31.02;11.55;;;;;;;;;;5033911;28;20071;-45
2021/12/27 04:03:53;;;;;;;29.80;11.43;;;;;;;;;;5034429;28;20018;-44
2021/12/27 04:06:21;;;;;;;36.65;11.25;;;;;;;;;;5027772;28;20091;-44
2021/12/27 04:08:47;;;;;;;31.95;11.82;;;;;;;;;;5026253;28;20044;-45
2021/12/27 04:11:14;;;;;;;34.85;10.95;;;;;;;;;;5019560;28;20033;-45
2021/12/27 04:13:40;;;;;;;30.23;11.52;;;;;;;;;;5024398;28;20068;-45
2021/12/27 04:16:06;;;;;;;29.35;11.82;;;;;;;;;;5024787;28;20038;-44
2021/12/27 04:18:32;;;;;;;38.67;10.73;;;;;;;;;;5023139;28;20052;-44
2021/12/27 04:20:58;;;;;;;26.58;11.73;;;;;;;;;;5028398;28;20060;-45
2021/12/27 04:23:24;;;;;;;27.80;11.38;;;;;;;;;;5022514;28;20029;-45
2021/12/27 04:25:50;;;;;;;29.10;11.23;;;;;;;;;;5020554;28;20045;-44
2021/12/27 04:28:19;;;;;;;28.95;11.35;;;;;;;;;;5024433;28;20080;-44
2021/12/27 04:30:45;;;;;;;34.53;12.35;;;;;;;;;;5024120;28;20029;-45
2021/12/27 04:33:11;;;;;;;35.78;11.45;;;;;;;;;;5027904;28;20065;-44
2021/12/27 04:35:37;;;;;;;29.75;11.65;;;;;;;;;;5021976;28;20092;-45
2021/12/27 04:38:04;;;;;;;26.63;11.45;;;;;;;;;;5025079;28;20028;-45
2021/12/27 04:40:31;;;;;;;30.70;11.88;;;;;;;;;;5021761;28;20056;-45
2021/12/27 04:43:02;;;;;;;28.55;11.43;;;;;;;;;;5026430;28;20021;-44
2021/12/27 04:45:29;;;;;;;30.30;12.27;;;;;;;;;;5017501;28;20120;-45
2021/12/27 04:47:55;;;;;;;34.45;11.50;;;;;;;;;;5032181;28;20062;-44
2021/12/27 04:50:23;;;;;;;31.48;11.93;;;;;;;;;;5022868;28;20029;-44
2021/12/27 04:52:52;;;;;;;27.42;10.90;;;;;;;;;;5028707;28;20032;-45
2021/12/27 04:55:19;;;;;;;33.53;12.80;;;;;;;;;;5020612;28;20441;-44
2021/12/27 04:57:45;;;;;;;34.67;12.13;;;;;;;;;;5021772;28;20550;-44
2021/12/27 05:00:11;;;;;;;27.83;11.13;;;;;;;;;;5022638;28;20033;-45
2021/12/27 05:02:37;;;;;;;33.13;11.20;;;;;;;;;;5022719;28;20054;-45
2021/12/27 05:05:03;;;;;;;28.08;11.73;;;;;;;;;;5019851;28;20551;-44
2021/12/27 05:07:29;;;;;;;34.63;13.13;;;;;;;;;;5020129;28;20063;-46
2021/12/27 05:09:55;;;;;;;35.15;12.77;;;;;;;;;;5022041;28;20069;-44
2021/12/27 05:12:21;;;;;;;33.05;11.70;;;;;;;;;;5021227;28;20056;-44
2021/12/27 05:14:47;;;;;;;40.03;13.02;;;;;;;;;;5024693;28;20034;-45
2021/12/27 05:17:13;;;;;;;33.17;13.18;;;;;;;;;;5024255;28;20072;-44
2021/12/27 05:19:39;;;;;;;34.05;13.20;;;;;;;;;;5029461;28;20072;-44
2021/12/27 05:22:05;;;;;;;36.63;12.93;;;;;;;;;;5040012;28;20057;-44
2021/12/27 05:24:31;;;;;;;38.90;12.73;;;;;;;;;;5031679;28;20534;-46
2021/12/27 05:26:57;;;;;;;30.60;12.30;;;;;;;;;;5032460;28;20036;-45
2021/12/27 05:29:23;;;;;;;35.72;13.40;;;;;;;;;;5029963;28;20029;-45
2021/12/27 05:31:50;;;;;;;31.15;11.75;;;;;;;;;;5031991;28;20108;-44
2021/12/27 05:34:16;;;;;;;31.77;12.43;;;;;;;;;;5032359;28;20108;-45
2021/12/27 05:36:42;;;;;;;34.17;12.45;;;;;;;;;;5032346;28;20470;-45
2021/12/27 05:39:09;;;;;;;28.65;11.70;;;;;;;;;;5031970;28;20045;-45
2021/12/27 05:41:35;;;;;;;39.45;12.45;;;;;;;;;;5031682;28;20130;-45
2021/12/27 05:44:01;;;;;;;27.88;13.07;;;;;;;;;;5031493;28;20021;-44
2021/12/27 05:46:27;;;;;;;29.67;12.52;;;;;;;;;;5031462;28;20467;-46
2021/12/27 05:48:53;;;;;;;35.13;13.10;;;;;;;;;;5032337;28;20029;-45
2021/12/27 05:51:19;;;;;;;33.70;13.05;;;;;;;;;;5031575;28;20014;-45
2021/12/27 05:53:45;;;;;;;41.70;13.60;;;;;;;;;;5031696;28;20067;-45
2021/12/27 05:56:11;;;;;;;30.33;12.57;;;;;;;;;;5031211;28;20025;-45
2021/12/27 05:58:37;;;;;;;31.30;12.55;;;;;;;;;;5013766;28;20026;-46
2021/12/27 06:01:04;;;;;;;39.38;12.82;;;;;;;;;;5030269;28;20036;-45
2021/12/27 06:03:30;;;;;;;32.60;13.13;;;;;;;;;;5030500;28;20263;-45
2021/12/27 06:05:56;;;;;;;29.15;12.75;;;;;;;;;;5030654;28;20600;-45
2021/12/27 06:08:22;;;;;;;33.30;13.05;;;;;;;;;;5034392;28;20131;-46
2021/12/27 06:10:48;;;;;;;34.35;12.80;;;;;;;;;;5029496;28;20071;-46
2021/12/27 06:13:14;;;;;;;34.80;13.82;;;;;;;;;;5032866;28;20145;-45
2021/12/27 06:15:40;;;;;;;31.90;13.48;;;;;;;;;;5016472;28;20449;-45
2021/12/27 06:18:06;;;;;;;38.90;13.77;;;;;;;;;;5015055;28;20069;-46
2021/12/27 06:20:32;;;;;;;30.23;13.57;;;;;;;;;;5019275;28;20428;-46
2021/12/27 06:22:59;;;;;;;41.83;13.57;;;;;;;;;;5017497;28;20073;-46
2021/12/27 06:25:26;;;;;;;33.60;12.25;;;;;;;;;;5015289;28;20512;-46
2021/12/27 06:27:52;;;;;;;34.05;13.93;;;;;;;;;;5020133;28;20552;-46
2021/12/27 06:30:20;;;;;;;39.13;14.90;;;;;;;;;;5013760;28;20058;-45
2021/12/27 06:32:46;;;;;;;40.78;13.50;;;;;;;;;;5016125;28;20025;-45
2021/12/27 06:35:13;;;;;;;37.78;13.63;;;;;;;;;;5016375;28;20377;-46
2021/12/27 06:37:40;;;;;;;40.60;14.73;;;;;;;;;;5015173;28;20028;-45
2021/12/27 06:40:06;;;;;;;36.42;13.90;;;;;;;;;;5013821;28;20050;-45
2021/12/27 06:42:32;;;;;;;35.63;14.40;;;;;;;;;;5015329;28;20040;-45
2021/12/27 06:44:58;;;;;;;35.97;13.25;;;;;;;;;;5022952;28;20092;-45
2021/12/27 06:47:26;;;;;;;30.77;13.20;;;;;;;;;;5013704;28;20042;-46
2021/12/27 06:49:52;;;;;;;41.35;14.60;;;;;;;;;;5015869;28;20026;-46
2021/12/27 06:52:18;;;;;;;37.38;13.55;;;;;;;;;;5017958;28;20518;-45
2021/12/27 06:54:44;;;;;;;32.85;12.70;;;;;;;;;;5017376;28;20080;-45
2021/12/27 06:57:11;;;;;;;41.10;14.75;;;;;;;;;;5016573;28;20057;-46
2021/12/27 06:59:37;;;;;;;32.88;15.60;;;;;;;;;;5015267;28;20021;-46
2021/12/27 07:02:03;;;;;;;29.17;13.70;;;;;;;;;;5015916;28;20037;-46
2021/12/27 07:04:31;;;;;;;39.63;14.65;;;;;;;;;;5015313;28;20107;-45
2021/12/27 07:06:57;;;;;;;37.15;15.05;;;;;;;;;;5017408;28;20051;-45
2021/12/27 07:11:52;;;;;;;37.00;13.82;;;;;;;;;;4998492;28;20043;-39
2021/12/27 07:14:19;;;;;;;36.08;14.13;;;;;;;;;;4999860;28;20099;-38
2021/12/27 07:16:45;;;;;;;40.80;14.52;;;;;;;;;;4993955;28;20058;-37
2021/12/27 07:19:11;;;;;;;33.70;12.85;;;;;;;;;;4994170;28;20064;-38
2021/12/27 07:21:37;;;;;;;38.70;13.93;;;;;;;;;;4979350;28;20109;-37
2021/12/27 07:24:03;;;;;;;38.28;15.23;;;;;;;;;;4980927;28;20149;-38
2021/12/27 07:26:29;;;;;;;37.40;12.95;;;;;;;;;;4975060;28;20066;-38
2021/12/27 07:28:55;;;;;;;36.55;14.60;;;;;;;;;;4973388;28;20054;-44
2021/12/27 07:31:21;;;;;;;39.60;13.43;;;;;;;;;;4976726;28;20113;-39
2021/12/27 07:33:47;;;;;;;46.20;15.85;;;;;;;;;;4981995;28;20139;-38
2021/12/27 07:36:13;;;;;;;40.38;15.52;;;;;;;;;;4972263;28;20070;-39
2021/12/27 07:38:40;;;;;;;35.85;14.88;;;;;;;;;;4974771;28;20098;-40
2021/12/27 07:41:06;;;;;;;37.08;16.60;;;;;;;;;;4973619;28;20035;-38
2021/12/27 07:43:32;;;;;;;36.40;15.00;;;;;;;;;;4977446;28;20050;-39
2021/12/27 07:45:58;;;;;;;38.17;14.27;;;;;;;;;;4976362;28;20445;-40
2021/12/27 07:48:24;;;;;;;41.58;15.35;;;;;;;;;;4979131;28;20031;-41
2021/12/27 07:50:50;;;;;;;35.47;13.98;;;;;;;;;;4984864;28;20038;-37
2021/12/27 07:53:16;;;;;;;35.40;15.57;;;;;;;;;;4979712;28;20057;-38
2021/12/27 07:55:42;;;;;;;38.85;15.20;;;;;;;;;;4984264;28;20034;-38
2021/12/27 07:58:08;;;;;;;45.08;16.17;;;;;;;;;;4981043;28;20026;-38
2021/12/27 08:00:34;;;;;;;42.17;16.15;;;;;;;;;;4979476;28;20030;-38
2021/12/27 08:03:01;;;;;;;34.92;14.75;;;;;;;;;;4980229;28;20058;-38
2021/12/27 08:05:27;;;;;;;41.78;16.10;;;;;;;;;;4975083;28;20027;-38
2021/12/27 08:07:53;;;;;;;43.72;16.38;;;;;;;;;;4981250;28;20030;-39
2021/12/27 08:10:20;;;;;;;39.70;14.95;;;;;;;;;;4974645;28;20081;-38
2021/12/27 08:12:46;;;;;;;47.35;16.90;;;;;;;;;;4974444;28;20108;-39
2021/12/27 08:15:13;;;;;;;40.67;18.13;;;;;;;;;;4982096;28;20077;-39
2021/12/27 08:17:39;;;;;;;40.55;15.52;;;;;;;;;;4982866;28;20026;-41
2021/12/27 08:20:06;;;;;;;38.47;14.80;;;;;;;;;;4989477;28;20430;-39
2021/12/27 08:22:32;;;;;;;39.38;15.82;;;;;;;;;;4983519;28;20125;-39
2021/12/27 08:24:58;;;;;;;40.25;15.52;;;;;;;;;;4982224;28;20022;-40
2021/12/27 08:27:25;;;;;;;40.30;15.98;;;;;;;;;;4987262;28;20030;-40
2021/12/27 08:29:51;;;;;;;45.10;18.30;;;;;;;;;;4984757;28;20018;-38
2021/12/27 08:32:18;;;;;;;37.65;15.15;;;;;;;;;;4988540;28;20027;-40
2021/12/27 08:34:44;;;;;;;39.53;15.50;;;;;;;;;;4992372;28;20064;-39
2021/12/27 08:37:11;;;;;;;35.00;15.35;;;;;;;;;;4994165;28;20469;-39
2021/12/27 08:39:38;;;;;;;42.85;15.40;;;;;;;;;;4989109;28;20079;-39
2021/12/27 08:42:07;;;;;;;41.42;17.60;;;;;;;;;;4992302;28;20033;-39
2021/12/27 08:44:33;;;;;;;44.05;17.55;;;;;;;;;;4993979;28;20100;-40
2021/12/27 08:46:59;;;;;;;39.70;17.15;;;;;;;;;;4993123;28;20054;-39
2021/12/27 08:49:25;;;;;;;44.42;17.00;;;;;;;;;;4991269;28;20061;-38
2021/12/27 08:51:51;;;;;;;45.35;18.63;;;;;;;;;;4987777;28;20124;-39
2021/12/27 08:54:18;;;;;;;39.53;15.50;;;;;;;;;;4976050;28;20240;-39
2021/12/27 08:56:44;;;;;;;40.88;16.67;;;;;;;;;;4991198;28;20030;-38
2021/12/27 08:59:09;;;;;;;51.65;17.38;;;;;;;;;;4991310;28;20033;-40
2021/12/27 09:01:36;;;;;;;49.15;18.15;;;;;;;;;;4989338;28;20034;-40
2021/12/27 09:04:02;;;;;;;38.35;15.93;;;;;;;;;;4994241;28;20061;-40
2021/12/27 09:06:28;;;;;;;44.38;19.02;;;;;;;;;;4992910;28;20105;-39
2021/12/27 09:08:54;;;;;;;45.10;17.58;;;;;;;;;;4990776;28;20037;-39
2021/12/27 09:11:20;;;;;;;48.42;21.05;;;;;;;;;;4992922;28;20366;-39
2021/12/27 09:13:46;;;;;;;46.75;18.83;;;;;;;;;;4995933;28;20030;-39
2021/12/27 09:16:13;;;;;;;44.60;17.75;;;;;;;;;;4990070;28;20523;-40
2021/12/27 09:18:39;;;;;;;56.95;18.88;;;;;;;;;;4991457;28;20065;-39
2021/12/27 09:21:06;;;;;;;43.15;18.00;;;;;;;;;;4993767;28;20128;-39
2021/12/27 09:23:32;;;;;;;37.47;17.40;;;;;;;;;;4992118;28;20089;-39
2021/12/27 09:25:58;;;;;;;43.85;19.05;;;;;;;;;;4991425;28;20034;-38
2021/12/27 09:28:24;;;;;;;48.40;17.88;;;;;;;;;;4991273;28;20062;-39
2021/12/27 09:30:50;;;;;;;47.60;19.30;;;;;;;;;;4993277;28;20597;-39
2021/12/27 09:33:17;;;;;;;42.55;17.77;;;;;;;;;;4993342;28;20446;-39
2021/12/27 09:35:43;;;;;;;46.75;18.15;;;;;;;;;;4991839;28;20078;-39
2021/12/27 09:38:09;;;;;;;42.25;19.45;;;;;;;;;;4985407;28;20373;-39
2021/12/27 09:40:35;;;;;;;38.97;15.82;;;;;;;;;;5001450;28;20022;-39
2021/12/27 09:43:01;;;;;;;46.03;18.75;;;;;;;;;;4992503;28;20034;-39
2021/12/27 09:45:27;;;;;;;47.70;18.67;;;;;;;;;;4985383;28;20038;-39
2021/12/27 09:47:53;;;;;;;45.15;18.73;;;;;;;;;;4992994;28;20046;-39
2021/12/27 09:50:25;;;;;;;55.58;20.05;;;;;;;;;;4992454;28;20543;-40
2021/12/27 09:52:51;;;;;;;51.60;17.77;;;;;;;;;;4993431;28;20034;-39
2021/12/27 09:55:17;;;;;;;41.08;17.65;;;;;;;;;;4992890;28;20033;-38
2021/12/27 09:57:44;;;;;;;46.25;18.13;;;;;;;;;;4992910;28;20030;-39
2021/12/27 10:00:10;;;;;;;46.72;19.05;;;;;;;;;;4992258;28;20030;-39
2021/12/27 10:02:37;;;;;;;41.33;17.70;;;;;;;;;;4992659;28;20034;-39
2021/12/27 10:05:03;;;;;;;46.83;20.38;;;;;;;;;;4992282;28;20080;-39
2021/12/27 10:07:29;;;;;;;50.08;19.50;;;;;;;;;;4992351;28;20133;-39
2021/12/27 10:09:59;;;;;;;44.10;17.88;;;;;;;;;;4990848;28;20030;-39
2021/12/27 10:12:29;;;;;;;46.50;19.17;;;;;;;;;;4991594;28;20034;-40
2021/12/27 10:14:58;;;;;;;44.55;18.25;;;;;;;;;;4991534;28;20366;-39
2021/12/27 10:17:25;;;;;;;46.92;17.45;;;;;;;;;;4977309;28;20612;-39
2021/12/27 10:19:53;;;;;;;50.47;19.52;;;;;;;;;;4991294;28;20026;-38
2021/12/27 10:22:20;;;;;;;50.72;19.58;;;;;;;;;;4992031;28;20461;-40
2021/12/27 10:24:47;;;;;;;38.20;16.45;;;;;;;;;;4990004;28;20507;-38
2021/12/27 10:27:13;;;;;;;55.25;19.70;;;;;;;;;;4990224;28;20044;-39
2021/12/27 10:29:40;;;;;;;37.25;17.02;;;;;;;;;;4987879;28;20050;-39
2021/12/27 10:32:06;;;;;;;52.65;18.63;;;;;;;;;;4989983;28;20478;-39
2021/12/27 10:34:40;;;;;;;42.47;19.05;;;;;;;;;;4992107;28;20441;-41
2021/12/27 10:37:06;;;;;;;43.90;18.33;;;;;;;;;;4985584;28;20046;-39
2021/12/27 10:39:44;;;;;;;42.17;17.17;;;;;;;;;;4989687;28;20037;-37
2021/12/27 10:42:11;;;;;;;47.85;19.23;;;;;;;;;;4990126;28;20426;-40
2021/12/27 10:44:38;;;;;;;41.35;17.55;;;;;;;;;;4990604;28;20490;-39
2021/12/27 10:47:04;;;;;;;48.33;19.77;;;;;;;;;;4990764;28;20029;-39
2021/12/27 10:49:47;;;;;;;41.63;17.65;;;;;;;;;;4990951;28;20116;-39
2021/12/27 10:52:13;;;;;;;42.28;18.45;;;;;;;;;;4989243;28;20054;-39
2021/12/27 10:54:39;;;;;;;39.15;17.77;;;;;;;;;;4990137;28;20442;-39
2021/12/27 10:57:06;;;;;;;46.40;18.92;;;;;;;;;;4990300;28;20026;-40
2021/12/27 10:59:32;;;;;;;47.85;18.20;;;;;;;;;;4989203;28;20492;-39
2021/12/27 11:02:09;;;;;;;50.28;19.45;;;;;;;;;;4988804;28;20132;-40
2021/12/27 11:04:35;;;;;;;45.58;19.65;;;;;;;;;;4987225;28;20031;-39
2021/12/27 11:07:02;;;;;;;43.22;19.23;;;;;;;;;;4988171;28;20025;-39
2021/12/27 11:09:28;;;;;;;44.35;17.30;;;;;;;;;;4987296;28;20023;-41
2021/12/27 11:11:54;;;;;;;52.38;19.27;;;;;;;;;;4989025;28;20062;-41
2021/12/27 11:14:20;;;;;;;43.53;18.05;;;;;;;;;;4989501;28;20050;-38
2021/12/27 11:16:47;;;;;;;46.35;19.58;;;;;;;;;;4987448;28;20426;-39
2021/12/27 11:19:13;;;;;;;50.05;19.60;;;;;;;;;;4985934;28;20102;-39
2021/12/27 11:21:44;;;;;;;44.10;17.88;;;;;;;;;;4987794;28;20060;-38
2021/12/27 11:24:10;;;;;;;43.58;17.33;;;;;;;;;;4988086;28;20548;-40
2021/12/27 11:26:38;;;;;;;43.75;20.48;;;;;;;;;;4993376;28;20089;-42
2021/12/27 11:29:10;;;;;;;47.83;19.63;;;;;;;;;;4987685;28;20030;-39
2021/12/27 11:31:37;;;;;;;43.63;18.63;;;;;;;;;;4984511;28;20559;-39
2021/12/27 11:34:05;;;;;;;44.63;18.33;;;;;;;;;;4977213;28;20027;-37
2021/12/27 11:36:35;;;;;;;47.60;19.33;;;;;;;;;;4980933;28;20025;-39
2021/12/27 11:39:17;;;;;;;46.53;18.88;;;;;;;;;;4980232;28;20041;-39
2021/12/27 11:41:43;;;;;;;47.60;18.08;;;;;;;;;;4981009;28;20046;-39
2021/12/27 11:44:17;;;;;;;47.10;19.58;;;;;;;;;;4983191;28;20085;-38
2021/12/27 11:46:49;;;;;;;49.67;18.35;;;;;;;;;;4985700;28;20527;-38
2021/12/27 11:49:15;;;;;;;52.65;20.30;;;;;;;;;;4991336;28;20109;-38
2021/12/27 11:51:42;;;;;;;46.38;19.98;;;;;;;;;;4991099;28;20126;-37
2021/12/27 11:54:28;;;;;;;42.00;17.67;;;;;;;;;;4988746;28;20390;-38
2021/12/27 11:56:54;;;;;;;;;;;;;;;;;;4988844;28;20510;-38
2021/12/27 11:59:23;;;;;;;46.72;17.90;;;;;;;;;;4990680;28;20044;-37
2021/12/27 12:01:52;;;;;;;48.00;19.08;;;;;;;;;;4988782;28;20370;-38
2021/12/27 12:04:37;;;;;;;39.63;17.02;;;;;;;;;;4987353;28;20023;-37
2021/12/27 12:07:05;;;;;;;49.20;17.95;;;;;;;;;;4990922;28;20464;-37
2021/12/27 12:09:31;;;;;;;46.08;19.42;;;;;;;;;;4986899;28;20018;-38
2021/12/27 12:12:06;;;;;;;44.38;20.27;;;;;;;;;;4993036;28;20145;-38
2021/12/27 12:14:32;;;;;;;;;;;;;;;;;;4993328;28;20022;-38
2021/12/27 12:16:59;;;;;;;40.85;17.83;;;;;;;;;;4992813;28;20316;-38
2021/12/27 12:19:34;;;;;;;53.72;18.75;;;;;;;;;;4989386;28;20033;-37
2021/12/27 12:22:00;;;;;;;46.72;18.90;;;;;;;;;;4983011;28;20076;-37
2021/12/27 12:24:26;;;;;;;46.75;18.85;;;;;;;;;;4985473;28;20089;-38
2021/12/27 12:26:52;;;;;;;48.28;19.98;;;;;;;;;;4986395;28;20092;-39
2021/12/27 12:29:19;;;;;;;47.35;21.23;;;;;;;;;;4989842;28;20442;-38
2021/12/27 12:31:45;;;;;;;54.10;20.90;;;;;;;;;;4993234;28;20058;-38
2021/12/27 12:34:12;;;;;;;47.80;19.23;;;;;;;;;;4997359;28;20031;-39
2021/12/27 12:36:54;;;;;;;48.42;19.42;;;;;;;;;;4994071;28;20084;-39
2021/12/27 12:39:22;;;;;;;53.33;21.05;;;;;;;;;;4988540;28;20031;-38
2021/12/27 12:41:48;;;;;;;45.47;20.77;;;;;;;;;;4997059;28;20034;-38
2021/12/27 12:44:14;;;;;;;53.35;19.55;;;;;;;;;;4993758;28;20022;-39
2021/12/27 12:46:45;;;;;;;51.90;20.58;;;;;;;;;;4992290;28;20362;-38
2021/12/27 12:49:14;;;;;;;43.70;20.00;;;;;;;;;;4987759;28;20077;-38
2021/12/27 12:51:40;;;;;;;43.42;18.20;;;;;;;;;;4990834;28;20038;-38
2021/12/27 12:54:07;;;;;;;45.33;19.45;;;;;;;;;;4988679;28;20104;-37
2021/12/27 12:56:36;;;;;;;47.67;20.63;;;;;;;;;;4992796;28;20393;-38
2021/12/27 12:59:02;;;;;;;54.22;20.90;;;;;;;;;;4993907;28;20105;-38
2021/12/27 13:01:28;;;;;;;44.05;20.25;;;;;;;;;;4997874;28;20062;-39
2021/12/27 13:03:55;;;;;;;44.65;21.45;;;;;;;;;;4994679;28;20070;-39
2021/12/27 13:06:21;;;;;;;44.58;19.83;;;;;;;;;;4988485;28;20023;-40
2021/12/27 13:08:55;;;;;;;45.03;18.40;;;;;;;;;;4991120;28;20598;-38
2021/12/27 13:11:21;;;;;;;52.88;19.70;;;;;;;;;;5023980;22;20411;-39
2021/12/27 13:13:47;;;;;;;45.92;21.00;;;;;;;;;;5026261;28;20059;-41
2021/12/27 13:16:14;;;;;;;48.05;18.88;;;;;;;;;;5024658;28;20045;-40
2021/12/27 13:18:40;;;;;;;44.80;19.88;;;;;;;;;;5025884;28;20033;-42
2021/12/27 13:21:09;;;;;;;42.28;18.92;;;;;;;;;;5022936;28;20018;-41
2021/12/27 13:23:37;;;;;;;40.80;19.95;;;;;;;;;;5015094;28;20152;-41
2021/12/27 13:26:04;;;;;;;43.05;20.35;;;;;;;;;;5015909;28;20046;-40
2021/12/27 13:28:30;;;;;;;47.45;20.33;;;;;;;;;;5017606;28;20831;-43
2021/12/27 13:31:06;;;;;;;51.30;20.40;;;;;;;;;;5016432;28;20021;-45
2021/12/27 13:33:35;;;;;;;48.30;20.63;;;;;;;;;;5016903;28;20493;-39
2021/12/27 13:36:01;;;;;;;46.38;19.77;;;;;;;;;;5020309;28;20030;-38
2021/12/27 13:38:30;;;;;;;54.78;21.80;;;;;;;;;;5014283;28;20013;-42
2021/12/27 13:41:02;;;;;;;49.72;22.40;;;;;;;;;;5023644;28;20049;-39
2021/12/27 13:43:28;;;;;;;52.90;21.00;;;;;;;;;;5012508;28;20608;-40
2021/12/27 13:45:54;;;;;;;46.83;21.13;;;;;;;;;;5015740;28;20084;-40
2021/12/27 13:48:30;;;;;;;48.85;23.73;;;;;;;;;;5016402;28;20091;-41
2021/12/27 13:50:56;;;;;;;47.17;22.55;;;;;;;;;;5028429;28;20160;-40
2021/12/27 13:53:22;;;;;;;45.67;20.45;;;;;;;;;;5019230;28;20033;-40
2021/12/27 13:55:48;;;;;;;48.70;23.38;;;;;;;;;;5011971;28;20068;-42
2021/12/27 13:58:19;;;;;;;62.17;23.33;;;;;;;;;;5024197;28;20437;-41
2021/12/27 14:00:45;;;;;;;54.13;23.13;;;;;;;;;;5016494;28;20057;-41
2021/12/27 14:03:24;;;;;;;54.97;22.42;;;;;;;;;;5013518;28;20044;-41
2021/12/27 14:05:55;;;;;;;53.28;25.25;;;;;;;;;;5016876;28;20037;-40
2021/12/27 14:08:21;;;;;;;55.70;23.65;;;;;;;;;;5011276;28;20029;-39
2021/12/27 14:11:00;;;;;;;52.60;23.33;;;;;;;;;;5015333;28;20722;-41
2021/12/27 14:13:43;;;;;;;63.45;25.40;;;;;;;;;;5007472;28;20025;-41
2021/12/27 14:16:28;;;;;;;54.80;24.33;;;;;;;;;;5020794;28;20046;-41
2021/12/27 14:19:05;;;;;;;59.80;24.17;;;;;;;;;;5016376;28;20411;-39
2021/12/27 14:21:31;;;;;;;55.33;24.25;;;;;;;;;;5010701;28;20037;-41
2021/12/27 14:24:03;;;;;;;53.22;25.92;;;;;;;;;;5011164;28;20033;-40
2021/12/27 14:26:29;;;;;;;60.13;26.65;;;;;;;;;;5012297;28;20054;-41
2021/12/27 14:29:14;;;;;;;55.75;23.50;;;;;;;;;;5010594;28;20057;-42
2021/12/27 14:31:40;;;;;;;51.42;23.63;;;;;;;;;;5013141;28;20132;-40